sensor_id;sensor_type;location;lat;lon;timestamp;P1;durP1;ratioP1;P2;durP2;ratioP2
74707;SDS011;63360;50.104;8.074;2023-04-15T00:01:35;2.93;;;1.27;;
74707;SDS011;63360;50.104;8.074;2023-04-15T00:04:02;3.70;;;1.20;;
74707;SDS011;63360;50.104;8.074;2023-04-15T00:06:29;3.65;;;1.30;;
74707;SDS011;63360;50.104;8.074;2023-04-15T00:08:56;3.30;;;1.27;;
74707;SDS011;63360;50.104;8.074;2023-04-15T00:11:23;4.13;;;1.20;;
74707;SDS011;63360;50.104;8.074;2023-04-15T00:13:49;3.83;;;1.30;;
74707;SDS011;63360;50.104;8.074;2023-04-15T00:16:16;2.50;;;1.27;;
74707;SDS011;63360;50.104;8.074;2023-04-15T00:18:42;5.47;;;1.73;;
74707;SDS011;63360;50.104;8.074;2023-04-15T00:21:09;3.08;;;1.50;;
74707;SDS011;63360;50.104;8.074;2023-04-15T00:23:35;3.47;;;1.38;;
74707;SDS011;63360;50.104;8.074;2023-04-15T00:26:02;3.20;;;1.40;;
74707;SDS011;63360;50.104;8.074;2023-04-15T00:28:28;5.05;;;1.50;;
74707;SDS011;63360;50.104;8.074;2023-04-15T00:30:56;5.75;;;1.60;;
74707;SDS011;63360;50.104;8.074;2023-04-15T00:33:22;3.35;;;1.52;;
74707;SDS011;63360;50.104;8.074;2023-04-15T00:35:49;4.40;;;1.35;;
74707;SDS011;63360;50.104;8.074;2023-04-15T00:38:16;3.00;;;1.40;;
74707;SDS011;63360;50.104;8.074;2023-04-15T00:40:42;2.50;;;1.20;;
74707;SDS011;63360;50.104;8.074;2023-04-15T00:43:09;3.97;;;1.20;;
74707;SDS011;63360;50.104;8.074;2023-04-15T00:45:35;5.65;;;1.40;;
74707;SDS011;63360;50.104;8.074;2023-04-15T00:48:02;3.08;;;1.15;;
74707;SDS011;63360;50.104;8.074;2023-04-15T00:50:30;3.60;;;1.20;;
74707;SDS011;63360;50.104;8.074;2023-04-15T00:52:56;4.70;;;1.50;;
74707;SDS011;63360;50.104;8.074;2023-04-15T00:55:23;5.07;;;1.80;;
74707;SDS011;63360;50.104;8.074;2023-04-15T00:57:49;3.67;;;1.60;;
74707;SDS011;63360;50.104;8.074;2023-04-15T01:00:16;5.32;;;1.50;;
74707;SDS011;63360;50.104;8.074;2023-04-15T01:02:43;4.83;;;1.80;;
74707;SDS011;63360;50.104;8.074;2023-04-15T01:05:10;3.50;;;1.65;;
74707;SDS011;63360;50.104;8.074;2023-04-15T01:07:36;6.55;;;2.13;;
74707;SDS011;63360;50.104;8.074;2023-04-15T01:10:03;4.93;;;1.55;;
74707;SDS011;63360;50.104;8.074;2023-04-15T01:12:31;3.97;;;1.60;;
74707;SDS011;63360;50.104;8.074;2023-04-15T01:14:58;4.17;;;1.40;;
74707;SDS011;63360;50.104;8.074;2023-04-15T01:17:25;3.78;;;1.40;;
74707;SDS011;63360;50.104;8.074;2023-04-15T01:19:51;3.92;;;1.70;;
74707;SDS011;63360;50.104;8.074;2023-04-15T01:22:18;3.88;;;1.50;;
74707;SDS011;63360;50.104;8.074;2023-04-15T01:24:47;4.50;;;1.80;;
74707;SDS011;63360;50.104;8.074;2023-04-15T01:27:20;4.27;;;1.23;;
74707;SDS011;63360;50.104;8.074;2023-04-15T01:29:47;4.68;;;1.60;;
74707;SDS011;63360;50.104;8.074;2023-04-15T01:32:14;3.45;;;1.50;;
74707;SDS011;63360;50.104;8.074;2023-04-15T01:34:40;4.97;;;1.90;;
74707;SDS011;63360;50.104;8.074;2023-04-15T01:37:07;3.95;;;1.58;;
74707;SDS011;63360;50.104;8.074;2023-04-15T01:39:33;4.50;;;1.40;;
74707;SDS011;63360;50.104;8.074;2023-04-15T01:42:00;4.40;;;1.63;;
74707;SDS011;63360;50.104;8.074;2023-04-15T01:44:26;5.03;;;1.60;;
74707;SDS011;63360;50.104;8.074;2023-04-15T01:46:53;3.53;;;1.70;;
74707;SDS011;63360;50.104;8.074;2023-04-15T01:49:19;3.83;;;1.20;;
74707;SDS011;63360;50.104;8.074;2023-04-15T01:51:45;7.23;;;2.37;;
74707;SDS011;63360;50.104;8.074;2023-04-15T01:54:12;4.72;;;1.40;;
74707;SDS011;63360;50.104;8.074;2023-04-15T01:56:38;3.70;;;1.67;;
74707;SDS011;63360;50.104;8.074;2023-04-15T01:59:05;4.50;;;1.55;;
74707;SDS011;63360;50.104;8.074;2023-04-15T02:01:31;3.75;;;1.67;;
74707;SDS011;63360;50.104;8.074;2023-04-15T02:03:58;3.37;;;1.37;;
74707;SDS011;63360;50.104;8.074;2023-04-15T02:06:24;4.28;;;1.58;;
74707;SDS011;63360;50.104;8.074;2023-04-15T02:08:50;2.63;;;1.25;;
74707;SDS011;63360;50.104;8.074;2023-04-15T02:11:17;4.32;;;1.55;;
74707;SDS011;63360;50.104;8.074;2023-04-15T02:13:43;4.70;;;1.60;;
74707;SDS011;63360;50.104;8.074;2023-04-15T02:16:16;4.53;;;1.83;;
74707;SDS011;63360;50.104;8.074;2023-04-15T02:18:44;3.28;;;1.40;;
74707;SDS011;63360;50.104;8.074;2023-04-15T02:21:12;4.85;;;1.25;;
74707;SDS011;63360;50.104;8.074;2023-04-15T02:23:38;3.35;;;1.48;;
74707;SDS011;63360;50.104;8.074;2023-04-15T02:26:05;3.63;;;1.50;;
74707;SDS011;63360;50.104;8.074;2023-04-15T02:28:32;4.70;;;1.40;;
74707;SDS011;63360;50.104;8.074;2023-04-15T02:30:58;4.22;;;1.25;;
74707;SDS011;63360;50.104;8.074;2023-04-15T02:33:24;5.18;;;1.50;;
74707;SDS011;63360;50.104;8.074;2023-04-15T02:35:51;3.97;;;1.42;;
74707;SDS011;63360;50.104;8.074;2023-04-15T02:38:18;6.10;;;1.33;;
74707;SDS011;63360;50.104;8.074;2023-04-15T02:40:44;3.90;;;1.60;;
74707;SDS011;63360;50.104;8.074;2023-04-15T02:43:11;4.10;;;1.52;;
74707;SDS011;63360;50.104;8.074;2023-04-15T02:45:38;3.97;;;1.70;;
74707;SDS011;63360;50.104;8.074;2023-04-15T02:48:04;4.03;;;1.60;;
74707;SDS011;63360;50.104;8.074;2023-04-15T02:50:31;3.80;;;1.58;;
74707;SDS011;63360;50.104;8.074;2023-04-15T02:52:58;5.43;;;1.73;;
74707;SDS011;63360;50.104;8.074;2023-04-15T02:55:27;4.35;;;1.42;;
74707;SDS011;63360;50.104;8.074;2023-04-15T02:57:53;3.97;;;1.50;;
74707;SDS011;63360;50.104;8.074;2023-04-15T03:00:20;3.45;;;1.38;;
74707;SDS011;63360;50.104;8.074;2023-04-15T03:02:47;3.22;;;1.27;;
74707;SDS011;63360;50.104;8.074;2023-04-15T03:05:17;3.43;;;1.20;;
74707;SDS011;63360;50.104;8.074;2023-04-15T03:07:44;2.85;;;1.20;;
74707;SDS011;63360;50.104;8.074;2023-04-15T03:10:10;4.82;;;1.15;;
74707;SDS011;63360;50.104;8.074;2023-04-15T03:12:37;4.63;;;1.10;;
74707;SDS011;63360;50.104;8.074;2023-04-15T03:15:03;3.60;;;1.05;;
74707;SDS011;63360;50.104;8.074;2023-04-15T03:17:30;5.00;;;1.10;;
74707;SDS011;63360;50.104;8.074;2023-04-15T03:19:56;3.35;;;0.95;;
74707;SDS011;63360;50.104;8.074;2023-04-15T03:22:23;4.30;;;1.20;;
74707;SDS011;63360;50.104;8.074;2023-04-15T03:24:50;4.50;;;1.20;;
74707;SDS011;63360;50.104;8.074;2023-04-15T03:27:16;3.30;;;1.00;;
74707;SDS011;63360;50.104;8.074;2023-04-15T03:29:42;5.53;;;1.03;;
74707;SDS011;63360;50.104;8.074;2023-04-15T03:32:09;4.45;;;1.50;;
74707;SDS011;63360;50.104;8.074;2023-04-15T03:34:35;5.18;;;1.00;;
74707;SDS011;63360;50.104;8.074;2023-04-15T03:37:02;4.40;;;1.20;;
74707;SDS011;63360;50.104;8.074;2023-04-15T03:39:28;4.50;;;1.13;;
74707;SDS011;63360;50.104;8.074;2023-04-15T03:41:54;5.70;;;1.60;;
74707;SDS011;63360;50.104;8.074;2023-04-15T03:44:21;3.38;;;1.23;;
74707;SDS011;63360;50.104;8.074;2023-04-15T03:46:47;5.00;;;1.38;;
74707;SDS011;63360;50.104;8.074;2023-04-15T03:49:14;3.75;;;1.27;;
74707;SDS011;63360;50.104;8.074;2023-04-15T03:51:41;4.05;;;1.20;;
74707;SDS011;63360;50.104;8.074;2023-04-15T03:54:07;3.23;;;1.23;;
74707;SDS011;63360;50.104;8.074;2023-04-15T03:56:34;2.28;;;1.30;;
74707;SDS011;63360;50.104;8.074;2023-04-15T03:59:00;5.15;;;1.33;;
74707;SDS011;63360;50.104;8.074;2023-04-15T04:01:27;4.30;;;1.35;;
74707;SDS011;63360;50.104;8.074;2023-04-15T04:03:53;3.28;;;1.17;;
74707;SDS011;63360;50.104;8.074;2023-04-15T04:06:20;5.97;;;1.40;;
74707;SDS011;63360;50.104;8.074;2023-04-15T04:08:47;5.78;;;1.48;;
74707;SDS011;63360;50.104;8.074;2023-04-15T04:11:13;3.10;;;1.23;;
74707;SDS011;63360;50.104;8.074;2023-04-15T04:13:39;4.60;;;1.52;;
74707;SDS011;63360;50.104;8.074;2023-04-15T04:16:06;14.43;;;3.85;;
74707;SDS011;63360;50.104;8.074;2023-04-15T04:18:33;9.03;;;2.27;;
74707;SDS011;63360;50.104;8.074;2023-04-15T04:20:59;8.32;;;2.13;;
74707;SDS011;63360;50.104;8.074;2023-04-15T04:23:26;7.97;;;2.10;;
74707;SDS011;63360;50.104;8.074;2023-04-15T04:25:53;6.75;;;1.90;;
74707;SDS011;63360;50.104;8.074;2023-04-15T04:28:19;5.53;;;1.58;;
74707;SDS011;63360;50.104;8.074;2023-04-15T04:30:45;5.03;;;1.47;;
74707;SDS011;63360;50.104;8.074;2023-04-15T04:33:12;3.65;;;1.42;;
74707;SDS011;63360;50.104;8.074;2023-04-15T04:35:38;4.22;;;1.50;;
74707;SDS011;63360;50.104;8.074;2023-04-15T04:38:05;6.82;;;1.60;;
74707;SDS011;63360;50.104;8.074;2023-04-15T04:40:31;5.93;;;1.38;;
74707;SDS011;63360;50.104;8.074;2023-04-15T04:42:57;4.87;;;1.50;;
74707;SDS011;63360;50.104;8.074;2023-04-15T04:45:24;3.45;;;1.35;;
74707;SDS011;63360;50.104;8.074;2023-04-15T04:47:50;4.47;;;1.45;;
74707;SDS011;63360;50.104;8.074;2023-04-15T04:50:17;3.17;;;1.30;;
74707;SDS011;63360;50.104;8.074;2023-04-15T04:52:43;4.80;;;1.65;;
74707;SDS011;63360;50.104;8.074;2023-04-15T04:55:10;4.77;;;1.60;;
74707;SDS011;63360;50.104;8.074;2023-04-15T04:57:36;3.88;;;1.60;;
74707;SDS011;63360;50.104;8.074;2023-04-15T05:00:05;6.07;;;2.10;;
74707;SDS011;63360;50.104;8.074;2023-04-15T05:02:33;6.50;;;2.90;;
74707;SDS011;63360;50.104;8.074;2023-04-15T05:05:01;6.70;;;2.85;;
74707;SDS011;63360;50.104;8.074;2023-04-15T05:07:27;7.03;;;2.50;;
74707;SDS011;63360;50.104;8.074;2023-04-15T05:09:53;7.20;;;2.30;;
74707;SDS011;63360;50.104;8.074;2023-04-15T05:12:20;6.30;;;2.13;;
74707;SDS011;63360;50.104;8.074;2023-04-15T05:14:46;5.82;;;2.17;;
74707;SDS011;63360;50.104;8.074;2023-04-15T05:17:13;5.00;;;1.73;;
74707;SDS011;63360;50.104;8.074;2023-04-15T05:19:39;4.70;;;1.87;;
74707;SDS011;63360;50.104;8.074;2023-04-15T05:22:06;5.00;;;1.83;;
74707;SDS011;63360;50.104;8.074;2023-04-15T05:24:32;5.85;;;1.70;;
74707;SDS011;63360;50.104;8.074;2023-04-15T05:26:59;4.85;;;1.60;;
74707;SDS011;63360;50.104;8.074;2023-04-15T05:29:27;4.05;;;1.65;;
74707;SDS011;63360;50.104;8.074;2023-04-15T05:31:53;3.50;;;1.57;;
74707;SDS011;63360;50.104;8.074;2023-04-15T05:34:19;5.95;;;1.80;;
74707;SDS011;63360;50.104;8.074;2023-04-15T05:36:46;5.03;;;1.80;;
74707;SDS011;63360;50.104;8.074;2023-04-15T05:39:13;5.55;;;2.60;;
74707;SDS011;63360;50.104;8.074;2023-04-15T05:41:39;9.40;;;3.88;;
74707;SDS011;63360;50.104;8.074;2023-04-15T05:44:06;6.80;;;3.00;;
74707;SDS011;63360;50.104;8.074;2023-04-15T05:46:32;7.22;;;2.95;;
74707;SDS011;63360;50.104;8.074;2023-04-15T05:48:58;8.73;;;3.25;;
74707;SDS011;63360;50.104;8.074;2023-04-15T05:51:26;10.43;;;4.18;;
74707;SDS011;63360;50.104;8.074;2023-04-15T05:53:52;11.23;;;4.32;;
74707;SDS011;63360;50.104;8.074;2023-04-15T05:56:19;12.80;;;4.80;;
74707;SDS011;63360;50.104;8.074;2023-04-15T05:58:45;9.88;;;4.40;;
74707;SDS011;63360;50.104;8.074;2023-04-15T06:01:12;9.55;;;4.22;;
74707;SDS011;63360;50.104;8.074;2023-04-15T06:03:38;14.02;;;6.03;;
74707;SDS011;63360;50.104;8.074;2023-04-15T06:06:05;13.63;;;5.22;;
74707;SDS011;63360;50.104;8.074;2023-04-15T06:08:32;10.97;;;5.10;;
74707;SDS011;63360;50.104;8.074;2023-04-15T06:10:59;10.77;;;5.68;;
74707;SDS011;63360;50.104;8.074;2023-04-15T06:13:25;13.10;;;6.35;;
74707;SDS011;63360;50.104;8.074;2023-04-15T06:15:52;12.77;;;5.63;;
74707;SDS011;63360;50.104;8.074;2023-04-15T06:18:19;11.20;;;5.45;;
74707;SDS011;63360;50.104;8.074;2023-04-15T06:20:45;10.90;;;5.60;;
74707;SDS011;63360;50.104;8.074;2023-04-15T06:23:12;10.95;;;4.97;;
74707;SDS011;63360;50.104;8.074;2023-04-15T06:25:38;9.00;;;5.00;;
74707;SDS011;63360;50.104;8.074;2023-04-15T06:28:04;8.93;;;4.75;;
74707;SDS011;63360;50.104;8.074;2023-04-15T06:30:31;8.65;;;4.95;;
74707;SDS011;63360;50.104;8.074;2023-04-15T06:32:57;8.83;;;4.80;;
74707;SDS011;63360;50.104;8.074;2023-04-15T06:35:24;9.48;;;3.95;;
74707;SDS011;63360;50.104;8.074;2023-04-15T06:37:51;7.15;;;3.08;;
74707;SDS011;63360;50.104;8.074;2023-04-15T06:40:17;6.30;;;3.05;;
74707;SDS011;63360;50.104;8.074;2023-04-15T06:42:44;6.72;;;3.00;;
74707;SDS011;63360;50.104;8.074;2023-04-15T06:45:10;6.03;;;3.03;;
74707;SDS011;63360;50.104;8.074;2023-04-15T06:47:37;6.90;;;3.00;;
74707;SDS011;63360;50.104;8.074;2023-04-15T06:50:03;7.65;;;2.63;;
74707;SDS011;63360;50.104;8.074;2023-04-15T06:52:30;6.80;;;2.45;;
74707;SDS011;63360;50.104;8.074;2023-04-15T06:54:56;5.90;;;2.40;;
74707;SDS011;63360;50.104;8.074;2023-04-15T06:57:24;5.47;;;2.20;;
74707;SDS011;63360;50.104;8.074;2023-04-15T06:59:51;4.55;;;1.70;;
74707;SDS011;63360;50.104;8.074;2023-04-15T07:02:19;4.50;;;1.60;;
74707;SDS011;63360;50.104;8.074;2023-04-15T07:04:46;4.85;;;1.73;;
74707;SDS011;63360;50.104;8.074;2023-04-15T07:07:12;6.10;;;1.90;;
74707;SDS011;63360;50.104;8.074;2023-04-15T07:09:40;5.17;;;1.70;;
74707;SDS011;63360;50.104;8.074;2023-04-15T07:12:06;4.03;;;1.70;;
74707;SDS011;63360;50.104;8.074;2023-04-15T07:14:33;4.32;;;2.00;;
74707;SDS011;63360;50.104;8.074;2023-04-15T07:16:59;4.47;;;1.77;;
74707;SDS011;63360;50.104;8.074;2023-04-15T07:19:26;4.78;;;2.10;;
74707;SDS011;63360;50.104;8.074;2023-04-15T07:21:52;4.70;;;2.00;;
74707;SDS011;63360;50.104;8.074;2023-04-15T07:24:18;4.88;;;1.92;;
74707;SDS011;63360;50.104;8.074;2023-04-15T07:26:45;4.30;;;1.92;;
74707;SDS011;63360;50.104;8.074;2023-04-15T07:29:12;4.85;;;1.80;;
74707;SDS011;63360;50.104;8.074;2023-04-15T07:31:39;4.38;;;2.20;;
74707;SDS011;63360;50.104;8.074;2023-04-15T07:34:06;3.97;;;2.00;;
74707;SDS011;63360;50.104;8.074;2023-04-15T07:36:33;4.45;;;2.28;;
74707;SDS011;63360;50.104;8.074;2023-04-15T07:39:00;6.53;;;2.35;;
74707;SDS011;63360;50.104;8.074;2023-04-15T07:41:29;9.57;;;2.63;;
74707;SDS011;63360;50.104;8.074;2023-04-15T07:43:56;4.75;;;2.30;;
74707;SDS011;63360;50.104;8.074;2023-04-15T07:46:22;5.30;;;2.43;;
74707;SDS011;63360;50.104;8.074;2023-04-15T07:48:49;4.97;;;2.40;;
74707;SDS011;63360;50.104;8.074;2023-04-15T07:51:16;5.90;;;2.83;;
74707;SDS011;63360;50.104;8.074;2023-04-15T07:53:42;6.20;;;2.70;;
74707;SDS011;63360;50.104;8.074;2023-04-15T07:56:09;4.70;;;2.60;;
74707;SDS011;63360;50.104;8.074;2023-04-15T07:58:36;4.27;;;2.50;;
74707;SDS011;63360;50.104;8.074;2023-04-15T08:01:03;5.55;;;2.88;;
74707;SDS011;63360;50.104;8.074;2023-04-15T08:03:30;5.10;;;2.80;;
74707;SDS011;63360;50.104;8.074;2023-04-15T08:05:57;4.75;;;3.00;;
74707;SDS011;63360;50.104;8.074;2023-04-15T08:08:23;6.15;;;3.35;;
74707;SDS011;63360;50.104;8.074;2023-04-15T08:10:50;5.00;;;3.13;;
74707;SDS011;63360;50.104;8.074;2023-04-15T08:13:18;6.60;;;3.00;;
74707;SDS011;63360;50.104;8.074;2023-04-15T08:15:44;6.38;;;3.08;;
74707;SDS011;63360;50.104;8.074;2023-04-15T08:18:11;4.78;;;2.90;;
74707;SDS011;63360;50.104;8.074;2023-04-15T08:20:37;6.85;;;3.47;;
74707;SDS011;63360;50.104;8.074;2023-04-15T08:23:04;6.03;;;3.33;;
74707;SDS011;63360;50.104;8.074;2023-04-15T08:25:30;5.78;;;3.50;;
74707;SDS011;63360;50.104;8.074;2023-04-15T08:27:56;7.18;;;3.70;;
74707;SDS011;63360;50.104;8.074;2023-04-15T08:30:23;7.05;;;3.40;;
74707;SDS011;63360;50.104;8.074;2023-04-15T08:32:49;5.82;;;3.20;;
74707;SDS011;63360;50.104;8.074;2023-04-15T08:35:16;5.73;;;3.30;;
74707;SDS011;63360;50.104;8.074;2023-04-15T08:37:43;5.72;;;3.20;;
74707;SDS011;63360;50.104;8.074;2023-04-15T08:40:09;5.07;;;3.00;;
74707;SDS011;63360;50.104;8.074;2023-04-15T08:42:37;5.65;;;3.10;;
74707;SDS011;63360;50.104;8.074;2023-04-15T08:45:10;5.47;;;2.70;;
74707;SDS011;63360;50.104;8.074;2023-04-15T08:47:37;4.33;;;2.73;;
74707;SDS011;63360;50.104;8.074;2023-04-15T08:50:07;4.85;;;2.75;;
74707;SDS011;63360;50.104;8.074;2023-04-15T08:52:35;4.47;;;2.60;;
74707;SDS011;63360;50.104;8.074;2023-04-15T08:55:02;4.93;;;2.80;;
74707;SDS011;63360;50.104;8.074;2023-04-15T08:57:30;4.97;;;2.67;;
74707;SDS011;63360;50.104;8.074;2023-04-15T08:59:58;4.87;;;2.50;;
74707;SDS011;63360;50.104;8.074;2023-04-15T09:02:30;4.75;;;2.33;;
74707;SDS011;63360;50.104;8.074;2023-04-15T09:04:57;4.10;;;2.50;;
74707;SDS011;63360;50.104;8.074;2023-04-15T09:07:23;7.38;;;2.30;;
74707;SDS011;63360;50.104;8.074;2023-04-15T09:09:50;3.95;;;2.40;;
74707;SDS011;63360;50.104;8.074;2023-04-15T09:12:17;5.17;;;1.97;;
74707;SDS011;63360;50.104;8.074;2023-04-15T09:14:44;4.35;;;2.00;;
74707;SDS011;63360;50.104;8.074;2023-04-15T09:17:12;3.03;;;1.77;;
74707;SDS011;63360;50.104;8.074;2023-04-15T09:19:39;4.05;;;2.20;;
74707;SDS011;63360;50.104;8.074;2023-04-15T09:22:05;3.50;;;1.90;;
74707;SDS011;63360;50.104;8.074;2023-04-15T09:24:35;3.83;;;1.80;;
74707;SDS011;63360;50.104;8.074;2023-04-15T09:27:04;3.90;;;2.15;;
74707;SDS011;63360;50.104;8.074;2023-04-15T09:29:31;6.47;;;1.98;;
74707;SDS011;63360;50.104;8.074;2023-04-15T09:32:10;4.82;;;2.00;;
74707;SDS011;63360;50.104;8.074;2023-04-15T09:34:38;4.15;;;1.92;;
74707;SDS011;63360;50.104;8.074;2023-04-15T09:37:04;3.77;;;1.90;;
74707;SDS011;63360;50.104;8.074;2023-04-15T09:39:48;3.78;;;1.65;;
74707;SDS011;63360;50.104;8.074;2023-04-15T09:42:17;3.72;;;1.63;;
74707;SDS011;63360;50.104;8.074;2023-04-15T09:44:49;3.38;;;1.85;;
74707;SDS011;63360;50.104;8.074;2023-04-15T09:47:27;4.68;;;2.10;;
74707;SDS011;63360;50.104;8.074;2023-04-15T09:49:55;4.47;;;1.90;;
74707;SDS011;63360;50.104;8.074;2023-04-15T09:52:22;3.15;;;1.52;;
74707;SDS011;63360;50.104;8.074;2023-04-15T09:54:50;4.25;;;1.52;;
74707;SDS011;63360;50.104;8.074;2023-04-15T09:57:19;4.55;;;1.60;;
74707;SDS011;63360;50.104;8.074;2023-04-15T09:59:46;6.32;;;1.92;;
74707;SDS011;63360;50.104;8.074;2023-04-15T10:02:13;2.90;;;1.20;;
74707;SDS011;63360;50.104;8.074;2023-04-15T10:04:40;4.50;;;1.50;;
74707;SDS011;63360;50.104;8.074;2023-04-15T10:07:07;3.45;;;1.20;;
74707;SDS011;63360;50.104;8.074;2023-04-15T10:09:35;3.50;;;1.40;;
74707;SDS011;63360;50.104;8.074;2023-04-15T10:12:03;4.15;;;1.40;;
74707;SDS011;63360;50.104;8.074;2023-04-15T10:14:32;2.10;;;1.10;;
74707;SDS011;63360;50.104;8.074;2023-04-15T10:17:00;3.00;;;1.20;;
74707;SDS011;63360;50.104;8.074;2023-04-15T10:19:29;5.65;;;1.30;;
74707;SDS011;63360;50.104;8.074;2023-04-15T10:21:57;2.50;;;1.30;;
74707;SDS011;63360;50.104;8.074;2023-04-15T10:24:24;4.20;;;1.35;;
74707;SDS011;63360;50.104;8.074;2023-04-15T10:26:52;3.73;;;1.53;;
74707;SDS011;63360;50.104;8.074;2023-04-15T10:29:20;4.78;;;1.45;;
74707;SDS011;63360;50.104;8.074;2023-04-15T10:31:48;4.55;;;1.40;;
74707;SDS011;63360;50.104;8.074;2023-04-15T10:34:16;4.90;;;1.65;;
74707;SDS011;63360;50.104;8.074;2023-04-15T10:36:43;2.90;;;1.33;;
74707;SDS011;63360;50.104;8.074;2023-04-15T10:42:06;3.40;;;1.40;;
74707;SDS011;63360;50.104;8.074;2023-04-15T10:44:44;3.55;;;1.25;;
74707;SDS011;63360;50.104;8.074;2023-04-15T10:47:17;4.28;;;1.40;;
74707;SDS011;63360;50.104;8.074;2023-04-15T10:49:50;3.17;;;1.52;;
74707;SDS011;63360;50.104;8.074;2023-04-15T10:52:23;4.00;;;1.27;;
74707;SDS011;63360;50.104;8.074;2023-04-15T10:55:00;2.38;;;1.10;;
74707;SDS011;63360;50.104;8.074;2023-04-15T10:57:39;6.55;;;1.85;;
74707;SDS011;63360;50.104;8.074;2023-04-15T11:00:13;3.22;;;1.23;;
74707;SDS011;63360;50.104;8.074;2023-04-15T11:02:45;3.95;;;1.35;;
74707;SDS011;63360;50.104;8.074;2023-04-15T11:05:21;4.13;;;1.33;;
74707;SDS011;63360;50.104;8.074;2023-04-15T11:08:11;3.28;;;1.27;;
74707;SDS011;63360;50.104;8.074;2023-04-15T11:13:13;2.22;;;0.80;;
74707;SDS011;63360;50.104;8.074;2023-04-15T11:15:42;2.35;;;0.75;;
74707;SDS011;63360;50.104;8.074;2023-04-15T11:18:11;3.50;;;0.90;;
74707;SDS011;63360;50.104;8.074;2023-04-15T11:20:46;2.78;;;0.60;;
74707;SDS011;63360;50.104;8.074;2023-04-15T11:23:14;5.05;;;1.25;;
74707;SDS011;63360;50.104;8.074;2023-04-15T11:25:41;3.03;;;0.70;;
74707;SDS011;63360;50.104;8.074;2023-04-15T11:28:08;3.60;;;1.00;;
74707;SDS011;63360;50.104;8.074;2023-04-15T11:30:37;2.87;;;0.90;;
74707;SDS011;63360;50.104;8.074;2023-04-15T11:33:09;4.22;;;1.00;;
74707;SDS011;63360;50.104;8.074;2023-04-15T11:35:37;2.10;;;0.90;;
74707;SDS011;63360;50.104;8.074;2023-04-15T11:38:10;2.40;;;1.00;;
74707;SDS011;63360;50.104;8.074;2023-04-15T11:40:39;2.17;;;0.85;;
74707;SDS011;63360;50.104;8.074;2023-04-15T11:45:37;1.80;;;1.00;;
74707;SDS011;63360;50.104;8.074;2023-04-15T11:48:12;1.23;;;0.60;;
74707;SDS011;63360;50.104;8.074;2023-04-15T11:50:39;1.70;;;0.90;;
74707;SDS011;63360;50.104;8.074;2023-04-15T11:53:07;1.30;;;0.73;;
74707;SDS011;63360;50.104;8.074;2023-04-15T11:58:13;1.27;;;0.60;;
74707;SDS011;63360;50.104;8.074;2023-04-15T12:00:48;2.42;;;0.60;;
74707;SDS011;63360;50.104;8.074;2023-04-15T12:03:22;1.52;;;0.60;;
74707;SDS011;63360;50.104;8.074;2023-04-15T12:11:26;0.98;;;0.60;;
74707;SDS011;63360;50.104;8.074;2023-04-15T12:13:58;1.20;;;0.50;;
74707;SDS011;63360;50.104;8.074;2023-04-15T12:16:35;1.88;;;0.50;;
74707;SDS011;63360;50.104;8.074;2023-04-15T12:19:15;1.45;;;0.60;;
74707;SDS011;63360;50.104;8.074;2023-04-15T12:21:44;2.20;;;0.90;;
74707;SDS011;63360;50.104;8.074;2023-04-15T12:24:12;1.42;;;0.70;;
74707;SDS011;63360;50.104;8.074;2023-04-15T12:26:43;1.42;;;0.65;;
74707;SDS011;63360;50.104;8.074;2023-04-15T12:29:11;2.05;;;0.70;;
74707;SDS011;63360;50.104;8.074;2023-04-15T12:34:33;1.70;;;0.70;;
74707;SDS011;63360;50.104;8.074;2023-04-15T12:37:04;2.58;;;0.90;;
74707;SDS011;63360;50.104;8.074;2023-04-15T12:39:39;2.22;;;1.20;;
74707;SDS011;63360;50.104;8.074;2023-04-15T12:42:07;1.73;;;0.90;;
74707;SDS011;63360;50.104;8.074;2023-04-15T12:44:35;2.63;;;0.90;;
74707;SDS011;63360;50.104;8.074;2023-04-15T12:47:02;2.63;;;0.90;;
74707;SDS011;63360;50.104;8.074;2023-04-15T12:49:29;2.60;;;0.95;;
74707;SDS011;63360;50.104;8.074;2023-04-15T12:51:58;2.03;;;1.05;;
74707;SDS011;63360;50.104;8.074;2023-04-15T12:54:26;2.13;;;0.70;;
74707;SDS011;63360;50.104;8.074;2023-04-15T12:56:53;1.60;;;0.80;;
74707;SDS011;63360;50.104;8.074;2023-04-15T12:59:20;2.73;;;0.80;;
74707;SDS011;63360;50.104;8.074;2023-04-15T13:01:48;1.50;;;0.75;;
74707;SDS011;63360;50.104;8.074;2023-04-15T13:04:16;2.08;;;0.80;;
74707;SDS011;63360;50.104;8.074;2023-04-15T13:06:42;2.40;;;0.90;;
74707;SDS011;63360;50.104;8.074;2023-04-15T13:09:09;1.55;;;0.80;;
74707;SDS011;63360;50.104;8.074;2023-04-15T13:11:35;1.33;;;0.80;;
74707;SDS011;63360;50.104;8.074;2023-04-15T13:14:06;2.30;;;1.13;;
74707;SDS011;63360;50.104;8.074;2023-04-15T13:16:33;4.43;;;1.38;;
74707;SDS011;63360;50.104;8.074;2023-04-15T13:19:01;2.88;;;0.90;;
74707;SDS011;63360;50.104;8.074;2023-04-15T13:21:29;4.03;;;1.90;;
74707;SDS011;63360;50.104;8.074;2023-04-15T13:23:57;1.93;;;0.90;;
74707;SDS011;63360;50.104;8.074;2023-04-15T13:26:23;2.20;;;1.10;;
74707;SDS011;63360;50.104;8.074;2023-04-15T13:28:50;2.83;;;0.90;;
74707;SDS011;63360;50.104;8.074;2023-04-15T13:31:16;5.10;;;2.42;;
74707;SDS011;63360;50.104;8.074;2023-04-15T13:33:42;2.60;;;1.20;;
74707;SDS011;63360;50.104;8.074;2023-04-15T13:36:09;4.13;;;2.10;;
74707;SDS011;63360;50.104;8.074;2023-04-15T13:38:35;4.43;;;2.42;;
74707;SDS011;63360;50.104;8.074;2023-04-15T13:41:02;2.72;;;1.38;;
74707;SDS011;63360;50.104;8.074;2023-04-15T13:43:28;2.63;;;1.10;;
74707;SDS011;63360;50.104;8.074;2023-04-15T13:45:55;3.13;;;1.20;;
74707;SDS011;63360;50.104;8.074;2023-04-15T13:48:22;2.43;;;1.30;;
74707;SDS011;63360;50.104;8.074;2023-04-15T13:50:48;2.17;;;1.00;;
74707;SDS011;63360;50.104;8.074;2023-04-15T13:53:15;3.55;;;1.35;;
74707;SDS011;63360;50.104;8.074;2023-04-15T13:55:41;2.17;;;0.98;;
74707;SDS011;63360;50.104;8.074;2023-04-15T13:58:08;2.38;;;1.17;;
74707;SDS011;63360;50.104;8.074;2023-04-15T14:00:35;2.77;;;1.20;;
74707;SDS011;63360;50.104;8.074;2023-04-15T14:03:01;1.90;;;1.10;;
74707;SDS011;63360;50.104;8.074;2023-04-15T14:05:28;3.40;;;1.45;;
74707;SDS011;63360;50.104;8.074;2023-04-15T14:07:55;1.98;;;1.23;;
74707;SDS011;63360;50.104;8.074;2023-04-15T14:10:21;2.40;;;1.50;;
74707;SDS011;63360;50.104;8.074;2023-04-15T14:12:47;3.17;;;1.53;;
74707;SDS011;63360;50.104;8.074;2023-04-15T14:15:14;2.95;;;1.50;;
74707;SDS011;63360;50.104;8.074;2023-04-15T14:17:40;4.50;;;2.00;;
74707;SDS011;63360;50.104;8.074;2023-04-15T14:20:07;4.35;;;2.40;;
74707;SDS011;63360;50.104;8.074;2023-04-15T14:22:34;3.85;;;2.10;;
74707;SDS011;63360;50.104;8.074;2023-04-15T14:25:01;5.40;;;2.20;;
74707;SDS011;63360;50.104;8.074;2023-04-15T14:27:27;5.75;;;2.35;;
74707;SDS011;63360;50.104;8.074;2023-04-15T14:29:54;4.90;;;2.38;;
74707;SDS011;63360;50.104;8.074;2023-04-15T14:32:20;4.45;;;2.50;;
74707;SDS011;63360;50.104;8.074;2023-04-15T14:34:47;4.45;;;2.67;;
74707;SDS011;63360;50.104;8.074;2023-04-15T14:37:13;4.90;;;2.73;;
74707;SDS011;63360;50.104;8.074;2023-04-15T14:39:39;4.93;;;3.00;;
74707;SDS011;63360;50.104;8.074;2023-04-15T14:42:06;5.43;;;2.97;;
74707;SDS011;63360;50.104;8.074;2023-04-15T14:44:32;5.13;;;2.70;;
74707;SDS011;63360;50.104;8.074;2023-04-15T14:46:59;5.78;;;2.58;;
74707;SDS011;63360;50.104;8.074;2023-04-15T14:49:25;4.90;;;2.80;;
74707;SDS011;63360;50.104;8.074;2023-04-15T14:51:52;5.63;;;2.67;;
74707;SDS011;63360;50.104;8.074;2023-04-15T14:54:18;7.53;;;3.60;;
74707;SDS011;63360;50.104;8.074;2023-04-15T14:56:47;5.50;;;3.05;;
74707;SDS011;63360;50.104;8.074;2023-04-15T14:59:13;6.05;;;3.22;;
74707;SDS011;63360;50.104;8.074;2023-04-15T15:01:40;6.27;;;3.40;;
74707;SDS011;63360;50.104;8.074;2023-04-15T15:04:06;6.88;;;3.42;;
74707;SDS011;63360;50.104;8.074;2023-04-15T15:06:35;6.22;;;3.33;;
74707;SDS011;63360;50.104;8.074;2023-04-15T15:09:01;8.38;;;3.45;;